createdAt,value
2023-05-20T00:01:46.358Z,99.90
2023-05-20T00:04:14.130Z,99.90
2023-05-20T00:06:41.690Z,99.90
2023-05-20T00:09:09.045Z,99.90
2023-05-20T00:11:36.438Z,99.90
2023-05-20T00:14:03.823Z,99.90
2023-05-20T00:16:31.274Z,99.90
2023-05-20T00:18:58.653Z,99.90
2023-05-20T00:21:26.021Z,99.90
2023-05-20T00:23:53.350Z,99.90
2023-05-20T00:26:21.463Z,99.90
2023-05-20T00:28:54.410Z,99.90
2023-05-20T00:31:21.808Z,99.90
2023-05-20T00:33:49.458Z,99.90
2023-05-20T00:36:16.782Z,99.90
2023-05-20T00:38:44.189Z,99.90
2023-05-20T00:41:11.902Z,99.90
2023-05-20T00:43:39.359Z,99.90
2023-05-20T00:46:06.733Z,99.90
2023-05-20T00:48:41.676Z,99.90
2023-05-20T00:51:11.044Z,99.90
2023-05-20T00:53:38.443Z,99.90
2023-05-20T00:56:06.542Z,99.90
2023-05-20T00:58:34.405Z,99.90
2023-05-20T01:01:02.004Z,99.90
2023-05-20T01:03:30.078Z,99.90
2023-05-20T01:05:57.820Z,99.90
2023-05-20T01:08:25.870Z,99.90
2023-05-20T01:11:04.983Z,99.90
2023-05-20T01:13:36.401Z,99.90
2023-05-20T01:16:04.286Z,99.90
2023-05-20T01:18:32.168Z,99.90
2023-05-20T01:21:02.417Z,99.90
2023-05-20T01:23:42.674Z,99.90
2023-05-20T01:26:13.830Z,99.90
2023-05-20T01:28:43.611Z,99.90
2023-05-20T01:31:14.754Z,99.90
2023-05-20T01:33:42.215Z,99.90
2023-05-20T01:36:09.981Z,99.90
2023-05-20T01:38:38.240Z,99.90
2023-05-20T01:41:05.730Z,99.90
2023-05-20T01:43:33.712Z,99.90
2023-05-20T01:46:02.848Z,99.90
2023-05-20T01:48:30.223Z,99.90
2023-05-20T01:50:57.704Z,99.90
2023-05-20T01:53:25.065Z,99.90
2023-05-20T01:55:52.448Z,99.90
2023-05-20T01:58:19.825Z,99.90
2023-05-20T02:00:47.343Z,99.90
2023-05-20T02:03:14.733Z,99.90
2023-05-20T02:05:42.122Z,99.90
2023-05-20T02:08:09.575Z,99.90
2023-05-20T02:10:37.024Z,99.90
2023-05-20T02:13:04.394Z,99.90
2023-05-20T02:15:32.512Z,99.90
2023-05-20T02:17:59.994Z,99.90
2023-05-20T02:20:27.542Z,99.90
2023-05-20T02:22:54.888Z,99.90
2023-05-20T02:25:22.226Z,99.90
2023-05-20T02:27:49.524Z,99.90
2023-05-20T02:30:17.371Z,99.90
2023-05-20T02:32:44.788Z,99.90
2023-05-20T02:35:12.780Z,99.90
2023-05-20T02:37:40.277Z,99.90
2023-05-20T02:40:09.357Z,99.90
2023-05-20T02:42:38.343Z,99.90
2023-05-20T02:45:06.401Z,99.90
2023-05-20T02:47:33.789Z,99.90
2023-05-20T02:50:04.725Z,99.90
2023-05-20T02:52:32.061Z,99.90
2023-05-20T02:54:59.421Z,99.90
2023-05-20T02:57:28.477Z,99.90
2023-05-20T02:59:56.382Z,99.90
2023-05-20T03:02:25.096Z,99.90
2023-05-20T03:04:54.956Z,99.90
2023-05-20T03:07:22.502Z,99.90
2023-05-20T03:09:49.901Z,99.90
2023-05-20T03:12:18.476Z,99.90
2023-05-20T03:14:45.928Z,99.90
2023-05-20T03:17:13.936Z,99.90
2023-05-20T03:19:41.288Z,99.90
2023-05-20T03:22:08.778Z,99.90
2023-05-20T03:24:36.639Z,99.90
2023-05-20T03:27:04.204Z,99.90
2023-05-20T03:29:31.624Z,99.90
2023-05-20T03:31:59.166Z,99.90
2023-05-20T03:34:28.268Z,99.90
2023-05-20T03:36:55.882Z,99.90
2023-05-20T03:39:23.400Z,99.90
2023-05-20T03:41:50.944Z,99.90
2023-05-20T03:44:19.644Z,99.90
2023-05-20T03:46:47.040Z,99.90
2023-05-20T03:49:14.500Z,99.90
2023-05-20T03:51:41.957Z,99.90
2023-05-20T03:54:12.448Z,99.90
2023-05-20T03:56:40.641Z,99.90
2023-05-20T03:59:08.016Z,99.90
2023-05-20T04:01:35.386Z,99.90
2023-05-20T04:04:02.894Z,99.90
2023-05-20T04:06:31.522Z,99.90
2023-05-20T04:08:59.627Z,99.90
2023-05-20T04:11:26.995Z,99.90
2023-05-20T04:13:54.817Z,99.90
2023-05-20T04:16:22.378Z,99.90
2023-05-20T04:18:50.775Z,99.90
2023-05-20T04:21:19.433Z,99.90
2023-05-20T04:23:47.446Z,99.90
2023-05-20T04:26:14.829Z,99.90
2023-05-20T04:28:42.218Z,99.90
2023-05-20T04:31:10.674Z,99.90
2023-05-20T04:33:39.109Z,99.90
2023-05-20T04:36:09.788Z,99.90
2023-05-20T04:38:37.409Z,99.90
2023-05-20T04:41:05.046Z,99.90
2023-05-20T04:43:33.821Z,99.90
2023-05-20T04:46:06.225Z,99.90
2023-05-20T04:48:34.193Z,99.90
2023-05-20T04:51:02.205Z,99.90
2023-05-20T04:53:30.656Z,99.90
2023-05-20T04:55:58.035Z,99.90
2023-05-20T04:58:25.681Z,99.90
2023-05-20T05:00:53.466Z,99.90
2023-05-20T05:03:20.887Z,99.90
2023-05-20T05:05:49.060Z,99.90
2023-05-20T05:08:17.370Z,99.90
2023-05-20T05:10:49.773Z,99.90
2023-05-20T05:13:17.193Z,99.90
2023-05-20T05:15:44.611Z,99.90
2023-05-20T05:18:12.739Z,99.90
2023-05-20T05:20:40.192Z,99.90
2023-05-20T05:23:07.609Z,99.90
2023-05-20T05:25:35.713Z,99.90
2023-05-20T05:28:03.359Z,99.90
2023-05-20T05:30:31.045Z,99.90
2023-05-20T05:32:58.580Z,99.90
2023-05-20T05:35:26.283Z,99.90
2023-05-20T05:37:53.667Z,99.90
2023-05-20T05:40:21.413Z,99.90
2023-05-20T05:42:48.993Z,99.90
2023-05-20T05:45:16.439Z,99.90
2023-05-20T05:47:43.908Z,99.90
2023-05-20T05:50:12.675Z,99.90
2023-05-20T05:52:40.157Z,99.90
2023-05-20T05:55:10.326Z,99.90
2023-05-20T05:57:37.757Z,99.90
2023-05-20T06:00:06.188Z,99.90
2023-05-20T06:02:46.117Z,99.90
2023-05-20T06:05:20.504Z,99.90
2023-05-20T06:07:48.077Z,99.90
2023-05-20T06:10:15.557Z,99.90
2023-05-20T06:12:42.925Z,99.90
2023-05-20T06:15:10.823Z,99.90
2023-05-20T06:17:38.950Z,99.90
2023-05-20T06:20:07.541Z,99.90
2023-05-20T06:22:35.821Z,99.90
2023-05-20T06:25:04.199Z,99.90
2023-05-20T06:27:33.562Z,99.90
2023-05-20T06:30:01.005Z,99.90
2023-05-20T06:32:30.025Z,99.90
2023-05-20T06:34:58.318Z,99.90
2023-05-20T06:37:25.770Z,99.90
2023-05-20T06:39:54.077Z,99.90
2023-05-20T06:42:21.792Z,99.90
2023-05-20T06:45:03.153Z,99.90
2023-05-20T06:47:49.955Z,99.90
2023-05-20T06:50:17.482Z,99.90
2023-05-20T06:52:45.303Z,99.90
2023-05-20T06:55:13.322Z,99.90
2023-05-20T06:57:41.049Z,99.90
2023-05-20T07:00:09.313Z,99.90
2023-05-20T07:02:40.897Z,99.90
2023-05-20T07:05:08.867Z,99.90
2023-05-20T07:07:36.443Z,99.90
2023-05-20T07:10:05.811Z,99.90
2023-05-20T07:12:36.081Z,99.90
2023-05-20T07:15:04.982Z,99.90
2023-05-20T07:17:33.734Z,99.90
2023-05-20T07:20:01.253Z,99.90
2023-05-20T07:22:29.883Z,99.90
2023-05-20T07:25:13.573Z,99.90
2023-05-20T07:27:40.940Z,99.90
2023-05-20T07:30:08.985Z,99.90
2023-05-20T07:32:37.778Z,99.90
2023-05-20T07:35:06.783Z,99.90
2023-05-20T07:37:34.132Z,99.90
2023-05-20T07:40:02.617Z,99.90
2023-05-20T07:42:30.104Z,99.90
2023-05-20T07:45:00.608Z,99.90
2023-05-20T07:47:28.422Z,99.90
2023-05-20T07:49:56.125Z,99.90
2023-05-20T07:52:24.140Z,99.90
2023-05-20T07:54:51.577Z,99.90
2023-05-20T07:57:19.030Z,99.90
2023-05-20T07:59:46.624Z,99.90
2023-05-20T08:02:13.989Z,99.90
2023-05-20T08:04:41.954Z,99.90
2023-05-20T08:07:09.320Z,99.90
2023-05-20T08:09:51.664Z,99.90
2023-05-20T08:12:19.953Z,99.90
2023-05-20T08:14:47.611Z,99.90
2023-05-20T08:17:15.295Z,99.90
2023-05-20T08:19:42.803Z,99.90
2023-05-20T08:22:10.246Z,99.90
2023-05-20T08:24:38.064Z,99.90
2023-05-20T08:27:05.614Z,99.90
2023-05-20T08:29:33.642Z,99.90
2023-05-20T08:32:01.015Z,99.90
2023-05-20T08:34:29.218Z,99.90
2023-05-20T08:36:57.801Z,99.90
2023-05-20T08:39:26.333Z,99.90
2023-05-20T08:41:53.793Z,99.90
2023-05-20T08:44:21.557Z,99.90
2023-05-20T08:46:49.341Z,99.90
2023-05-20T08:49:17.143Z,99.90
2023-05-20T08:51:46.232Z,99.90
2023-05-20T08:54:13.663Z,99.90
2023-05-20T08:56:42.009Z,99.90
2023-05-20T08:59:09.858Z,99.90
2023-05-20T09:01:41.587Z,99.90
2023-05-20T09:04:09.832Z,99.90
2023-05-20T09:06:44.876Z,99.90
2023-05-20T09:09:14.927Z,99.90
2023-05-20T09:11:42.402Z,99.90
2023-05-20T09:14:09.799Z,99.90
2023-05-20T09:16:37.213Z,99.90
2023-05-20T09:19:06.379Z,99.90
2023-05-20T09:21:35.366Z,99.90
2023-05-20T09:24:02.775Z,99.90
2023-05-20T09:26:30.244Z,99.90
2023-05-20T09:28:57.984Z,99.90
2023-05-20T09:31:29.419Z,99.90
2023-05-20T09:33:56.958Z,99.90
2023-05-20T09:36:24.539Z,99.90
2023-05-20T09:38:53.483Z,99.90
2023-05-20T09:41:22.193Z,99.90
2023-05-20T09:43:50.106Z,99.90
2023-05-20T09:46:17.449Z,99.90
2023-05-20T09:48:44.847Z,99.90
2023-05-20T09:51:13.326Z,99.90
2023-05-20T09:53:40.848Z,99.90
2023-05-20T09:56:08.277Z,99.90
2023-05-20T09:58:39.144Z,99.90
2023-05-20T10:01:07.679Z,99.90
2023-05-20T10:03:36.421Z,99.90
2023-05-20T10:06:09.969Z,99.90
2023-05-20T10:09:07.411Z,99.90
2023-05-20T10:11:34.722Z,99.90
2023-05-20T10:14:21.058Z,99.90
2023-05-20T10:17:09.929Z,99.90
2023-05-20T10:19:37.386Z,99.90
2023-05-20T10:22:09.297Z,99.90
2023-05-20T10:24:41.328Z,99.90
2023-05-20T10:27:14.830Z,99.90
2023-05-20T10:29:52.473Z,99.90
2023-05-20T10:32:29.029Z,99.90
2023-05-20T10:35:01.398Z,99.90
2023-05-20T10:37:30.644Z,99.90
2023-05-20T10:40:09.367Z,99.90
2023-05-20T10:42:36.769Z,99.90
2023-05-20T10:45:04.526Z,99.90
2023-05-20T10:47:31.998Z,99.90
2023-05-20T10:49:59.449Z,99.90
2023-05-20T10:52:26.790Z,99.90
2023-05-20T10:54:54.398Z,99.90
2023-05-20T10:57:22.193Z,99.90
2023-05-20T10:59:50.171Z,99.90
2023-05-20T11:02:17.645Z,99.90
2023-05-20T11:04:45.336Z,99.90
2023-05-20T11:07:13.069Z,99.90
2023-05-20T11:09:40.397Z,98.90
2023-05-20T11:12:07.823Z,99.90
2023-05-20T11:14:35.757Z,99.40
2023-05-20T11:17:03.280Z,98.60
2023-05-20T11:19:30.872Z,98.70
2023-05-20T11:21:58.351Z,98.50
2023-05-20T11:24:27.249Z,98.60
2023-05-20T11:26:58.088Z,98.20
2023-05-20T11:29:26.501Z,97.40
2023-05-20T11:31:53.884Z,96.50
2023-05-20T11:34:26.791Z,96.30
2023-05-20T11:36:58.575Z,95.60
2023-05-20T11:39:28.974Z,95.70
2023-05-20T11:41:56.320Z,94.50
2023-05-20T11:44:24.359Z,94.50
2023-05-20T11:46:51.666Z,94.90
2023-05-20T11:49:18.990Z,95.30
2023-05-20T11:51:46.402Z,93.60
2023-05-20T11:54:13.786Z,93.80
2023-05-20T11:56:41.600Z,94.60
2023-05-20T11:59:09.787Z,94.90
2023-05-20T12:01:40.824Z,93.80
2023-05-20T12:04:13.170Z,93.90
2023-05-20T12:06:42.864Z,94.30
2023-05-20T12:09:10.868Z,92.90
2023-05-20T12:11:40.698Z,91.80
2023-05-20T12:14:08.590Z,91.80
2023-05-20T12:16:36.636Z,92.00
2023-05-20T12:19:04.409Z,91.60
2023-05-20T12:21:32.276Z,90.80
2023-05-20T12:23:59.844Z,90.50
2023-05-20T12:26:28.075Z,90.60
2023-05-20T12:28:55.580Z,90.60
2023-05-20T12:31:24.703Z,91.30
2023-05-20T12:33:52.132Z,90.90
2023-05-20T12:36:22.250Z,90.20
2023-05-20T12:38:49.645Z,89.00
2023-05-20T12:41:17.019Z,89.40
2023-05-20T12:43:44.395Z,88.60
2023-05-20T12:46:11.750Z,89.70
2023-05-20T12:48:41.135Z,90.20
2023-05-20T12:51:09.859Z,86.10
2023-05-20T12:53:37.222Z,87.50
2023-05-20T12:56:06.185Z,85.90
2023-05-20T12:58:34.336Z,86.70
2023-05-20T13:01:01.727Z,85.70
2023-05-20T13:03:29.830Z,84.80
2023-05-20T13:05:57.911Z,84.50
2023-05-20T13:08:26.486Z,83.90
2023-05-20T13:10:54.671Z,79.50
2023-05-20T13:13:22.026Z,78.40
2023-05-20T13:15:49.585Z,80.40
2023-05-20T13:18:17.122Z,81.40
2023-05-20T13:20:44.504Z,81.10
2023-05-20T13:23:12.103Z,81.00
2023-05-20T13:25:39.612Z,80.80
2023-05-20T13:28:07.603Z,80.30
2023-05-20T13:30:35.335Z,81.90
2023-05-20T13:33:03.065Z,81.90
2023-05-20T13:35:30.747Z,82.20
2023-05-20T13:37:58.252Z,80.30
2023-05-20T13:40:25.700Z,80.30
2023-05-20T13:42:53.697Z,79.20
2023-05-20T13:45:22.408Z,78.80
2023-05-20T13:47:49.870Z,78.40
2023-05-20T13:50:17.326Z,77.50
2023-05-20T13:52:44.686Z,77.60
2023-05-20T13:55:12.085Z,78.50
2023-05-20T13:57:39.486Z,78.70
2023-05-20T14:00:07.480Z,79.00
2023-05-20T14:02:36.504Z,80.10
2023-05-20T14:05:04.213Z,78.50
2023-05-20T14:07:31.627Z,78.20
2023-05-20T14:09:59.006Z,79.10
2023-05-20T14:12:26.893Z,78.30
2023-05-20T14:14:54.365Z,80.60
2023-05-20T14:17:21.814Z,80.90
2023-05-20T14:19:49.197Z,82.10
2023-05-20T14:22:16.676Z,83.60
2023-05-20T14:24:44.113Z,84.50
2023-05-20T14:27:11.538Z,85.20
2023-05-20T14:29:38.911Z,85.90
2023-05-20T14:32:06.613Z,85.50
2023-05-20T14:34:36.553Z,85.70
2023-05-20T14:37:09.724Z,87.60
2023-05-20T14:39:37.106Z,88.10
2023-05-20T14:42:04.854Z,89.20
2023-05-20T14:44:32.276Z,90.00
2023-05-20T14:46:59.782Z,90.10
2023-05-20T14:49:27.179Z,90.60
2023-05-20T14:51:54.635Z,90.50
2023-05-20T14:54:25.087Z,91.10
2023-05-20T14:56:52.738Z,90.70
2023-05-20T14:59:20.052Z,90.90
2023-05-20T15:01:47.479Z,90.90
2023-05-20T15:04:14.835Z,91.40
2023-05-20T15:06:42.225Z,91.40
2023-05-20T15:09:10.171Z,91.50
2023-05-20T15:11:37.597Z,91.40
2023-05-20T15:14:04.952Z,91.50
2023-05-20T15:16:32.333Z,91.40
2023-05-20T15:18:59.840Z,91.40
2023-05-20T15:21:27.221Z,91.20
2023-05-20T15:23:54.596Z,91.70
2023-05-20T15:26:21.960Z,91.70
2023-05-20T15:28:49.331Z,91.60
2023-05-20T15:31:16.935Z,91.60
2023-05-20T15:33:44.419Z,91.30
2023-05-20T15:36:11.893Z,91.40
2023-05-20T15:38:39.416Z,91.10
2023-05-20T15:41:07.913Z,90.80
2023-05-20T15:43:35.277Z,90.50
2023-05-20T15:46:02.733Z,90.20
2023-05-20T15:48:30.160Z,89.40
2023-05-20T15:50:57.558Z,89.30
2023-05-20T15:53:24.990Z,88.70
2023-05-20T15:55:52.459Z,89.00
2023-05-20T15:58:19.826Z,88.60
2023-05-20T16:00:47.797Z,87.20
2023-05-20T16:03:16.484Z,88.30
2023-05-20T16:05:44.006Z,88.40
2023-05-20T16:08:11.452Z,88.30
2023-05-20T16:10:38.848Z,88.50
2023-05-20T16:13:06.341Z,88.70
2023-05-20T16:15:36.509Z,90.00
2023-05-20T16:18:04.226Z,88.80
2023-05-20T16:20:31.749Z,89.80
2023-05-20T16:22:59.131Z,90.60
2023-05-20T16:25:26.523Z,91.00
2023-05-20T16:27:53.907Z,91.10
2023-05-20T16:30:21.304Z,90.90
2023-05-20T16:32:48.901Z,90.80
2023-05-20T16:35:16.680Z,91.10
2023-05-20T16:37:44.578Z,90.80
2023-05-20T16:40:12.334Z,91.10
2023-05-20T16:42:39.909Z,91.30
2023-05-20T16:45:07.886Z,91.40
2023-05-20T16:47:36.959Z,91.50
2023-05-20T16:50:04.788Z,91.70
2023-05-20T16:52:33.803Z,91.60
2023-05-20T16:55:03.025Z,91.70
2023-05-20T16:57:30.904Z,91.70
2023-05-20T16:59:58.428Z,92.20
2023-05-20T17:02:26.084Z,92.40
2023-05-20T17:04:53.508Z,92.40
2023-05-20T17:07:21.136Z,92.00
2023-05-20T17:09:48.540Z,91.90
2023-05-20T17:12:16.587Z,92.40
2023-05-20T17:14:43.946Z,92.40
2023-05-20T17:17:13.936Z,91.80
2023-05-20T17:19:41.364Z,91.70
2023-05-20T17:22:08.813Z,91.50
2023-05-20T17:24:36.494Z,91.60
2023-05-20T17:27:05.982Z,91.50
2023-05-20T17:29:33.494Z,91.40
2023-05-20T17:32:00.970Z,91.50
2023-05-20T17:34:28.372Z,91.70
2023-05-20T17:36:57.190Z,91.60
2023-05-20T17:39:24.553Z,91.60
2023-05-20T17:41:51.922Z,91.70
2023-05-20T17:44:19.324Z,91.70
2023-05-20T17:46:46.909Z,91.80
2023-05-20T17:49:14.394Z,91.90
2023-05-20T17:51:42.331Z,92.00
2023-05-20T17:54:09.839Z,92.10
2023-05-20T17:56:37.199Z,92.30
2023-05-20T17:59:07.186Z,92.50
2023-05-20T18:01:36.252Z,92.70
2023-05-20T18:04:05.847Z,92.80
2023-05-20T18:06:34.742Z,93.10
2023-05-20T18:09:03.643Z,93.30
2023-05-20T18:11:34.602Z,93.60
2023-05-20T18:14:02.123Z,93.60
2023-05-20T18:16:29.926Z,93.80
2023-05-20T18:18:57.556Z,93.90
2023-05-20T18:21:25.058Z,94.20
2023-05-20T18:23:52.512Z,94.40
2023-05-20T18:26:19.927Z,94.90
2023-05-20T18:28:47.308Z,95.20
2023-05-20T18:31:14.707Z,95.50
2023-05-20T18:33:43.122Z,95.90
2023-05-20T18:36:10.653Z,96.20
2023-05-20T18:38:40.523Z,96.20
2023-05-20T18:41:08.983Z,96.40
2023-05-20T18:43:36.692Z,96.80
2023-05-20T18:46:04.095Z,97.20
2023-05-20T18:48:31.549Z,97.40
2023-05-20T18:50:59.024Z,97.50
2023-05-20T18:53:26.777Z,97.50
2023-05-20T18:55:54.258Z,97.70
2023-05-20T18:58:21.649Z,97.80
2023-05-20T19:00:49.154Z,98.00
2023-05-20T19:03:17.094Z,98.40
2023-05-20T19:05:44.563Z,98.70
2023-05-20T19:08:12.003Z,99.00
2023-05-20T19:10:39.406Z,99.10
2023-05-20T19:13:06.767Z,99.20
2023-05-20T19:15:34.443Z,99.20
2023-05-20T19:18:02.093Z,99.50
2023-05-20T19:20:29.537Z,99.60
2023-05-20T19:22:56.920Z,99.90
2023-05-20T19:25:24.244Z,99.90
2023-05-20T19:27:51.688Z,99.90
2023-05-20T19:30:18.997Z,99.90
2023-05-20T19:32:46.432Z,99.90
2023-05-20T19:35:13.904Z,99.90
2023-05-20T19:37:41.259Z,99.90
2023-05-20T19:40:09.223Z,99.90
2023-05-20T19:42:36.670Z,99.90
2023-05-20T19:45:04.531Z,99.90
2023-05-20T19:47:31.883Z,99.90
2023-05-20T19:49:59.258Z,99.90
2023-05-20T19:52:26.673Z,99.90
2023-05-20T19:54:54.062Z,99.90
2023-05-20T19:57:21.393Z,99.90
2023-05-20T19:59:49.218Z,99.90
2023-05-20T20:02:17.486Z,99.90
2023-05-20T20:04:44.878Z,99.90
2023-05-20T20:07:12.346Z,99.90
2023-05-20T20:09:39.680Z,99.90
2023-05-20T20:12:07.560Z,99.90
2023-05-20T20:14:34.902Z,99.90
2023-05-20T20:17:02.562Z,99.90
2023-05-20T20:19:30.037Z,99.90
2023-05-20T20:21:58.236Z,99.90
2023-05-20T20:24:26.217Z,99.90
2023-05-20T20:26:56.968Z,99.90
2023-05-20T20:29:24.482Z,99.90
2023-05-20T20:31:52.365Z,99.90
2023-05-20T20:34:19.863Z,99.90
2023-05-20T20:36:47.284Z,99.90
2023-05-20T20:39:19.068Z,99.90
2023-05-20T20:41:47.344Z,99.90
2023-05-20T20:44:17.089Z,99.90
2023-05-20T20:46:44.868Z,99.90
2023-05-20T20:49:12.330Z,99.90
2023-05-20T20:51:40.115Z,99.90
2023-05-20T20:54:08.045Z,99.90
2023-05-20T20:56:39.520Z,99.90
2023-05-20T20:59:07.126Z,99.90
2023-05-20T21:01:37.816Z,99.90
2023-05-20T21:04:05.430Z,99.90
2023-05-20T21:06:32.841Z,99.90
2023-05-20T21:09:02.065Z,99.90
2023-05-20T21:11:29.585Z,99.90
2023-05-20T21:13:57.022Z,99.90
2023-05-20T21:16:24.404Z,99.90
2023-05-20T21:18:51.966Z,99.90
2023-05-20T21:21:21.575Z,99.90
2023-05-20T21:23:50.914Z,99.90
2023-05-20T21:26:18.303Z,99.90
2023-05-20T21:28:45.669Z,99.90
2023-05-20T21:31:13.075Z,99.90
2023-05-20T21:33:40.488Z,99.90
2023-05-20T21:36:07.860Z,99.90
2023-05-20T21:38:35.416Z,99.90
2023-05-20T21:41:02.786Z,99.90
2023-05-20T21:43:30.737Z,99.90
2023-05-20T21:45:58.148Z,99.90
2023-05-20T21:48:25.562Z,99.90
2023-05-20T21:50:52.952Z,99.90
2023-05-20T21:53:20.299Z,99.90
2023-05-20T21:55:47.651Z,99.90
2023-05-20T21:58:15.035Z,99.90
2023-05-20T22:00:42.835Z,99.90
2023-05-20T22:03:10.352Z,99.90
2023-05-20T22:05:38.005Z,99.90
2023-05-20T22:08:05.825Z,99.90
2023-05-20T22:10:34.199Z,99.90
2023-05-20T22:13:02.161Z,99.90
2023-05-20T22:15:29.608Z,99.90
2023-05-20T22:17:57.223Z,99.90
2023-05-20T22:20:25.259Z,99.90
2023-05-20T22:22:52.665Z,99.90
2023-05-20T22:25:20.165Z,99.90
2023-05-20T22:27:48.231Z,99.90
2023-05-20T22:30:15.602Z,99.90
2023-05-20T22:32:43.035Z,99.90
2023-05-20T22:35:13.248Z,99.90
2023-05-20T22:37:40.917Z,99.90
2023-05-20T22:40:09.470Z,99.90
2023-05-20T22:42:36.847Z,99.90
2023-05-20T22:45:04.618Z,99.90
2023-05-20T22:47:32.067Z,99.90
2023-05-20T22:50:02.460Z,99.90
2023-05-20T22:52:30.047Z,99.90
2023-05-20T22:54:58.463Z,99.90
2023-05-20T22:57:25.839Z,99.90
2023-05-20T22:59:54.010Z,99.90
2023-05-20T23:02:24.386Z,99.90
2023-05-20T23:04:51.943Z,99.90
2023-05-20T23:07:19.388Z,99.90
2023-05-20T23:09:48.400Z,99.90
2023-05-20T23:12:15.958Z,99.90
2023-05-20T23:14:43.323Z,99.90
2023-05-20T23:17:10.816Z,99.90
2023-05-20T23:19:38.275Z,99.90
2023-05-20T23:22:05.698Z,99.90
2023-05-20T23:24:33.036Z,99.90
2023-05-20T23:27:00.366Z,99.90
2023-05-20T23:29:27.872Z,99.90
2023-05-20T23:31:55.202Z,99.90
2023-05-20T23:34:22.516Z,99.90
2023-05-20T23:36:52.780Z,99.90
2023-05-20T23:39:20.157Z,99.90
2023-05-20T23:41:47.510Z,99.90
2023-05-20T23:44:14.855Z,99.90
2023-05-20T23:46:42.339Z,99.90
2023-05-20T23:49:10.235Z,99.90
2023-05-20T23:51:37.604Z,99.90
2023-05-20T23:54:05.002Z,99.90
2023-05-20T23:56:32.359Z,99.90
2023-05-20T23:58:59.720Z,99.90
